createdAt,value
2018-04-15T00:00:32.616Z,42.87
2018-04-15T00:03:00.943Z,40.17
2018-04-15T00:05:29.482Z,43.43
2018-04-15T00:07:58.596Z,40.27
2018-04-15T00:10:26.998Z,43.00
2018-04-15T00:12:55.416Z,43.50
2018-04-15T00:15:23.837Z,40.70
2018-04-15T00:17:52.204Z,42.57
2018-04-15T00:20:21.305Z,43.10
2018-04-15T00:22:49.700Z,41.87
2018-04-15T00:25:18.101Z,46.87
2018-04-15T00:27:46.439Z,43.00
2018-04-15T00:30:14.889Z,44.07
2018-04-15T00:32:43.308Z,43.43
2018-04-15T00:35:11.724Z,42.97
2018-04-15T00:37:40.098Z,44.10
2018-04-15T00:40:08.529Z,46.83
2018-04-15T00:42:36.924Z,46.90
2018-04-15T00:45:05.433Z,45.77
2018-04-15T00:47:33.831Z,46.60
2018-04-15T00:50:02.234Z,46.97
2018-04-15T00:52:31.434Z,47.30
2018-04-15T00:55:00.656Z,46.70
2018-04-15T00:57:29.144Z,45.20
2018-04-15T00:59:57.565Z,48.00
2018-04-15T01:02:25.962Z,43.67
2018-04-15T01:04:55.253Z,45.67
2018-04-15T01:07:23.636Z,47.07
2018-04-15T01:09:52.797Z,47.23
2018-04-15T01:12:21.958Z,47.13
2018-04-15T01:14:50.474Z,45.43
2018-04-15T01:17:18.845Z,48.77
2018-04-15T01:19:48.024Z,52.50
2018-04-15T01:22:16.385Z,48.47
2018-04-15T01:24:44.757Z,50.73
2018-04-15T01:27:13.924Z,51.87
2018-04-15T01:29:42.341Z,51.20
2018-04-15T01:32:10.847Z,51.10
2018-04-15T01:34:39.245Z,49.50
2018-04-15T01:37:07.648Z,47.67
2018-04-15T01:39:36.055Z,50.53
2018-04-15T01:42:04.461Z,51.50
2018-04-15T01:44:32.917Z,49.33
2018-04-15T01:47:01.308Z,49.97
2018-04-15T01:49:29.713Z,53.47
2018-04-15T01:51:58.175Z,51.67
2018-04-15T01:54:26.567Z,51.67
2018-04-15T01:56:54.992Z,52.47
2018-04-15T01:59:24.093Z,54.80
2018-04-15T02:01:53.207Z,52.23
2018-04-15T02:04:21.613Z,55.87
2018-04-15T02:06:50.382Z,53.97
2018-04-15T02:09:18.721Z,55.07
2018-04-15T02:11:47.823Z,47.87
2018-04-15T02:14:17.009Z,49.60
2018-04-15T02:16:46.183Z,50.57
2018-04-15T02:19:14.575Z,52.00
2018-04-15T02:21:42.972Z,56.40
2018-04-15T02:24:12.155Z,53.43
2018-04-15T02:26:40.491Z,52.57
2018-04-15T02:29:08.911Z,50.70
2018-04-15T02:31:37.301Z,51.07
2018-04-15T02:34:06.422Z,54.97
2018-04-15T02:36:34.844Z,51.73
2018-04-15T02:39:03.301Z,50.37
2018-04-15T02:41:31.737Z,53.57
2018-04-15T02:44:00.892Z,55.27
2018-04-15T02:46:29.252Z,58.50
2018-04-15T02:48:57.684Z,55.63
2018-04-15T02:51:26.871Z,56.27
2018-04-15T02:53:56.032Z,54.63
2018-04-15T02:56:24.465Z,57.57
2018-04-15T02:58:53.600Z,54.33
2018-04-15T03:01:21.937Z,54.57
2018-04-15T03:03:51.161Z,55.27
2018-04-15T03:06:19.564Z,55.87
2018-04-15T03:08:47.942Z,54.87
2018-04-15T03:11:16.361Z,55.93
2018-04-15T03:13:45.521Z,53.60
2018-04-15T03:16:14.686Z,52.27
2018-04-15T03:18:43.045Z,51.77
2018-04-15T03:21:11.384Z,54.60
2018-04-15T03:23:39.776Z,52.93
2018-04-15T03:26:08.177Z,52.13
2018-04-15T03:28:36.551Z,50.87
2018-04-15T03:31:05.703Z,54.63
2018-04-15T03:33:34.029Z,50.33
2018-04-15T03:36:02.391Z,51.80
2018-04-15T03:38:31.540Z,52.93
2018-04-15T03:40:59.990Z,48.87
2018-04-15T03:43:28.320Z,49.43
2018-04-15T03:45:56.711Z,49.17
2018-04-15T03:48:25.115Z,50.13
2018-04-15T03:50:53.507Z,50.23
2018-04-15T03:53:21.881Z,49.47
2018-04-15T03:55:50.263Z,49.67
2018-04-15T03:58:18.671Z,48.50
2018-04-15T04:00:47.087Z,48.50
2018-04-15T04:03:16.211Z,44.57
2018-04-15T04:05:44.747Z,48.53
2018-04-15T04:08:13.148Z,47.07
2018-04-15T04:10:42.304Z,48.83
2018-04-15T04:13:10.728Z,44.87
2018-04-15T04:15:39.869Z,42.03
2018-04-15T04:18:20.087Z,46.87
2018-04-15T04:21:00.318Z,47.40
2018-04-15T04:23:40.418Z,46.80
2018-04-15T04:26:09.254Z,47.10
2018-04-15T04:28:37.621Z,44.03
2018-04-15T04:31:06.002Z,43.40
2018-04-15T04:33:34.387Z,45.63
2018-04-15T04:36:02.796Z,47.17
2018-04-15T04:38:31.320Z,48.40
2018-04-15T04:40:59.707Z,50.67
2018-04-15T04:43:28.793Z,47.90
2018-04-15T04:45:57.200Z,48.37
2018-04-15T04:48:25.557Z,48.63
2018-04-15T04:50:53.971Z,46.53
2018-04-15T04:53:23.072Z,48.50
2018-04-15T04:55:52.224Z,48.90
2018-04-15T04:58:20.634Z,47.67
2018-04-15T05:00:48.967Z,51.23
2018-04-15T05:03:17.356Z,48.80
2018-04-15T05:05:45.772Z,56.13
2018-04-15T05:08:14.933Z,50.13
2018-04-15T05:10:43.348Z,53.73
2018-04-15T05:13:12.528Z,59.07
2018-04-15T05:15:40.980Z,57.17
2018-04-15T05:18:09.300Z,58.50
2018-04-15T05:20:38.430Z,54.13
2018-04-15T05:23:06.822Z,56.60
2018-04-15T05:25:35.647Z,56.77
2018-04-15T05:28:04.035Z,52.07
2018-04-15T05:30:32.395Z,49.53
2018-04-15T05:33:00.858Z,54.30
2018-04-15T05:35:29.219Z,58.97
2018-04-15T05:37:57.603Z,57.90
2018-04-15T05:40:26.008Z,58.07
2018-04-15T05:42:54.412Z,54.80
2018-04-15T05:45:23.607Z,55.77
2018-04-15T05:47:52.759Z,48.77
2018-04-15T05:50:21.176Z,57.40
2018-04-15T05:52:49.541Z,49.67
2018-04-15T05:55:17.899Z,54.87
2018-04-15T05:57:46.268Z,49.10
2018-04-15T06:00:15.171Z,53.83
2018-04-15T06:02:43.565Z,55.50
2018-04-15T06:05:11.965Z,52.30
2018-04-15T06:07:41.596Z,55.43
2018-04-15T06:10:09.987Z,52.13
2018-04-15T06:12:38.384Z,55.53
2018-04-15T06:15:06.795Z,56.77
2018-04-15T06:17:35.174Z,50.47
2018-04-15T06:20:03.567Z,50.97
2018-04-15T06:22:32.750Z,52.23
2018-04-15T06:25:01.158Z,52.73
2018-04-15T06:27:29.507Z,57.63
2018-04-15T06:29:58.687Z,49.40
2018-04-15T06:32:27.104Z,58.93
2018-04-15T06:34:55.436Z,53.87
2018-04-15T06:37:23.768Z,50.37
2018-04-15T06:39:52.551Z,55.60
2018-04-15T06:42:20.940Z,56.83
2018-04-15T06:44:49.347Z,55.17
2018-04-15T06:47:17.703Z,53.03
2018-04-15T06:49:46.063Z,59.60
2018-04-15T06:52:14.459Z,63.70
2018-04-15T06:54:42.844Z,51.77
2018-04-15T06:57:11.182Z,59.17
2018-04-15T06:59:40.841Z,51.63
2018-04-15T07:02:09.236Z,52.77
2018-04-15T07:04:37.598Z,50.57
2018-04-15T07:07:05.985Z,54.00
2018-04-15T07:09:34.434Z,54.67
2018-04-15T07:12:02.824Z,62.27
2018-04-15T07:14:31.224Z,58.23
2018-04-15T07:16:59.592Z,56.47
2018-04-15T07:19:27.943Z,60.90
2018-04-15T07:21:56.271Z,58.53
2018-04-15T07:24:24.795Z,54.33
2018-04-15T07:26:53.156Z,58.70
2018-04-15T07:29:21.528Z,58.17
2018-04-15T07:31:50.707Z,61.70
2018-04-15T07:34:19.073Z,59.87
2018-04-15T07:36:47.454Z,55.97
2018-04-15T07:39:15.844Z,56.53
2018-04-15T07:41:44.994Z,55.63
2018-04-15T07:44:13.404Z,64.13
2018-04-15T07:46:41.800Z,61.60
2018-04-15T07:49:10.983Z,55.47
2018-04-15T07:51:39.352Z,64.97
2018-04-15T07:54:07.782Z,60.83
2018-04-15T07:56:36.151Z,66.40
2018-04-15T07:59:04.559Z,61.00
2018-04-15T08:01:32.931Z,59.53
2018-04-15T08:04:01.379Z,59.20
2018-04-15T08:06:30.489Z,61.90
2018-04-15T08:08:58.898Z,68.60
2018-04-15T08:11:27.360Z,64.27
2018-04-15T08:13:55.692Z,58.60
2018-04-15T08:16:24.920Z,64.10
2018-04-15T08:18:54.150Z,61.63
2018-04-15T08:21:22.539Z,62.13
2018-04-15T08:23:51.009Z,63.63
2018-04-15T08:26:19.348Z,56.30
2018-04-15T08:28:47.745Z,59.83
2018-04-15T08:31:16.157Z,56.43
2018-04-15T08:33:44.622Z,60.03
2018-04-15T08:36:13.553Z,61.20
2018-04-15T08:38:41.985Z,60.23
2018-04-15T08:41:10.408Z,55.60
2018-04-15T08:43:39.180Z,58.90
2018-04-15T08:46:07.738Z,55.97
2018-04-15T08:48:36.951Z,59.53
2018-04-15T08:51:05.366Z,58.70
2018-04-15T08:53:34.520Z,58.30
2018-04-15T08:56:03.141Z,53.40
2018-04-15T08:58:32.289Z,57.03
2018-04-15T09:01:01.041Z,51.60
2018-04-15T09:03:29.484Z,53.07
2018-04-15T09:05:58.070Z,50.77
2018-04-15T09:08:27.271Z,51.63
2018-04-15T09:10:55.717Z,52.27
2018-04-15T09:13:24.104Z,50.80
2018-04-15T09:15:52.536Z,49.37
2018-04-15T09:18:20.949Z,49.50
2018-04-15T09:20:49.344Z,50.57
2018-04-15T09:23:17.784Z,53.43
2018-04-15T09:25:46.435Z,46.87
2018-04-15T09:28:14.786Z,50.70
2018-04-15T09:30:48.735Z,51.43
2018-04-15T09:33:18.004Z,50.17
2018-04-15T09:35:46.367Z,46.23
2018-04-15T09:38:14.732Z,47.60
2018-04-15T09:40:43.106Z,45.40
2018-04-15T09:43:11.438Z,44.23
2018-04-15T09:45:40.614Z,45.20
2018-04-15T09:48:09.012Z,41.77
2018-04-15T09:50:38.203Z,47.30
2018-04-15T09:53:07.489Z,46.03
2018-04-15T09:55:35.878Z,43.57
2018-04-15T09:58:05.035Z,42.13
2018-04-15T10:00:33.444Z,41.77
2018-04-15T10:03:01.800Z,40.77
2018-04-15T10:05:30.183Z,39.17
2018-04-15T10:07:58.708Z,40.10
2018-04-15T10:10:27.117Z,42.43
2018-04-15T10:12:55.508Z,39.67
2018-04-15T10:15:23.896Z,37.57
2018-04-15T10:17:52.289Z,40.43
2018-04-15T10:20:20.619Z,41.63
2018-04-15T10:22:49.782Z,41.10
2018-04-15T10:25:18.899Z,41.77
2018-04-15T10:27:47.307Z,44.90
2018-04-15T10:30:16.272Z,41.73
2018-04-15T10:32:44.664Z,40.67
2018-04-15T10:35:13.760Z,40.13
2018-04-15T10:37:42.275Z,36.60
2018-04-15T10:40:10.675Z,36.23
2018-04-15T10:42:39.837Z,37.43
2018-04-15T10:45:08.214Z,35.00
2018-04-15T10:47:36.590Z,35.67
2018-04-15T10:50:04.953Z,36.47
2018-04-15T10:52:33.359Z,34.67
2018-04-15T10:55:01.829Z,34.53
2018-04-15T10:57:30.217Z,31.90
2018-04-15T10:59:58.612Z,33.60
2018-04-15T11:02:27.025Z,33.53
2018-04-15T11:07:30.775Z,27.23
2018-04-15T11:09:59.195Z,29.93
2018-04-15T11:12:27.592Z,30.73
2018-04-15T11:14:57.213Z,27.10
2018-04-15T11:17:25.571Z,30.20
2018-04-15T11:19:54.668Z,25.20
2018-04-15T11:22:23.844Z,24.13
2018-04-15T11:24:52.233Z,23.73
2018-04-15T11:27:21.414Z,24.10
2018-04-15T11:29:49.838Z,23.57
2018-04-15T11:32:18.221Z,20.23
2018-04-15T11:34:46.575Z,21.67
2018-04-15T11:37:15.704Z,21.87
2018-04-15T11:39:44.151Z,20.10
2018-04-15T11:42:13.303Z,20.67
2018-04-15T11:44:41.711Z,18.97
2018-04-15T11:47:10.897Z,17.57
2018-04-15T11:49:39.434Z,16.13
2018-04-15T11:52:07.787Z,15.87
2018-04-15T11:54:36.172Z,15.37
2018-04-15T11:57:04.635Z,16.13
2018-04-15T11:59:33.780Z,15.97
2018-04-15T12:02:02.113Z,15.33
2018-04-15T12:04:31.285Z,15.83
2018-04-15T12:06:59.681Z,16.37
2018-04-15T12:09:28.964Z,16.50
2018-04-15T12:11:57.362Z,16.73
2018-04-15T12:14:26.461Z,17.90
2018-04-15T12:16:54.819Z,16.60
2018-04-15T12:19:23.977Z,17.50
2018-04-15T12:21:52.900Z,17.20
2018-04-15T12:24:21.292Z,16.20
2018-04-15T12:26:50.484Z,17.07
2018-04-15T12:29:19.657Z,15.30
2018-04-15T12:31:48.163Z,16.80
2018-04-15T12:34:17.320Z,16.00
2018-04-15T12:36:45.649Z,14.17
2018-04-15T12:39:14.792Z,14.70
2018-04-15T12:41:43.147Z,15.00
2018-04-15T12:44:11.531Z,15.53
2018-04-15T12:46:39.940Z,14.60
2018-04-15T12:49:08.835Z,16.33
2018-04-15T12:51:37.257Z,15.80
2018-04-15T12:54:05.647Z,15.77
2018-04-15T12:56:34.003Z,16.10
2018-04-15T12:59:03.159Z,16.47
2018-04-15T13:01:31.586Z,15.13
2018-04-15T13:04:00.004Z,15.40
2018-04-15T13:06:28.364Z,14.83
2018-04-15T13:08:56.757Z,14.60
2018-04-15T13:11:25.202Z,15.17
2018-04-15T13:13:53.565Z,15.00
2018-04-15T13:16:22.730Z,14.27
2018-04-15T13:18:51.066Z,15.80
2018-04-15T13:21:19.595Z,14.43
2018-04-15T13:23:47.957Z,14.87
2018-04-15T13:26:16.329Z,13.53
2018-04-15T13:28:44.693Z,12.27
2018-04-15T13:31:13.083Z,12.57
2018-04-15T13:33:41.897Z,12.30
2018-04-15T13:36:10.291Z,12.80
2018-04-15T13:38:39.402Z,12.43
2018-04-15T13:41:07.832Z,13.17
2018-04-15T13:43:36.232Z,12.80
2018-04-15T13:46:04.918Z,13.40
2018-04-15T13:48:33.350Z,14.00
2018-04-15T13:51:01.688Z,13.20
2018-04-15T13:53:30.808Z,15.87
2018-04-15T13:55:59.179Z,13.83
2018-04-15T13:58:27.616Z,14.87
2018-04-15T14:00:55.999Z,13.53
2018-04-15T14:03:24.403Z,13.77
2018-04-15T14:05:53.543Z,13.07
2018-04-15T14:08:21.948Z,13.83
2018-04-15T14:10:51.107Z,13.43
2018-04-15T14:13:19.524Z,14.17
2018-04-15T14:15:47.964Z,13.13
2018-04-15T14:18:16.368Z,13.60
2018-04-15T14:20:44.767Z,13.53
2018-04-15T14:23:13.115Z,14.37
2018-04-15T14:25:41.570Z,13.80
2018-04-15T14:28:09.960Z,14.53
2018-04-15T14:30:38.329Z,14.00
2018-04-15T14:33:06.701Z,13.90
2018-04-15T14:35:35.088Z,14.83
2018-04-15T14:38:03.473Z,13.77
2018-04-15T14:40:31.898Z,13.27
2018-04-15T14:43:01.075Z,13.47
2018-04-15T14:45:29.482Z,14.83
2018-04-15T14:47:58.660Z,15.53
2018-04-15T14:50:27.101Z,16.23
2018-04-15T14:52:55.492Z,15.80
2018-04-15T14:55:23.868Z,14.67
2018-04-15T14:57:52.705Z,16.93
2018-04-15T15:00:21.863Z,14.60
2018-04-15T15:02:50.268Z,15.60
2018-04-15T15:05:19.475Z,15.97
2018-04-15T15:07:48.596Z,16.17
2018-04-15T15:10:17.016Z,16.53
2018-04-15T15:12:45.409Z,16.70
2018-04-15T15:15:13.795Z,16.70
2018-04-15T15:17:42.124Z,16.37
2018-04-15T15:20:10.482Z,15.70
2018-04-15T15:22:38.889Z,15.87
2018-04-15T15:25:07.272Z,15.77
2018-04-15T15:27:35.679Z,14.87
2018-04-15T15:30:04.039Z,15.37
2018-04-15T15:32:32.409Z,15.50
2018-04-15T15:35:00.807Z,15.43
2018-04-15T15:37:29.167Z,15.43
2018-04-15T15:39:57.520Z,14.87
2018-04-15T15:42:25.932Z,13.47
2018-04-15T15:44:54.295Z,13.77
2018-04-15T15:47:22.760Z,15.63
2018-04-15T15:49:51.128Z,15.93
2018-04-15T15:52:19.555Z,14.67
2018-04-15T15:54:47.902Z,13.73
2018-04-15T15:57:16.231Z,15.07
2018-04-15T15:59:44.668Z,15.97
2018-04-15T16:02:12.994Z,13.53
2018-04-15T16:04:41.389Z,13.07
2018-04-15T16:07:10.236Z,14.40
2018-04-15T16:09:38.629Z,14.17
2018-04-15T16:12:07.732Z,13.77
2018-04-15T16:14:36.243Z,13.87
2018-04-15T16:17:04.603Z,14.10
2018-04-15T16:19:32.964Z,14.93
2018-04-15T16:22:01.670Z,14.07
2018-04-15T16:24:30.060Z,13.43
2018-04-15T16:26:58.477Z,13.77
2018-04-15T16:29:26.887Z,12.77
2018-04-15T16:31:56.079Z,13.43
2018-04-15T16:34:25.174Z,12.63
2018-04-15T16:36:54.739Z,13.53
2018-04-15T16:39:23.072Z,12.97
2018-04-15T16:41:51.468Z,13.43
2018-04-15T16:44:19.880Z,12.43
2018-04-15T16:46:48.267Z,12.23
2018-04-15T16:49:16.675Z,13.27
2018-04-15T16:51:45.890Z,13.37
2018-04-15T16:54:14.284Z,14.03
2018-04-15T16:56:42.628Z,14.90
2018-04-15T16:59:11.875Z,15.57
2018-04-15T17:01:40.211Z,15.70
2018-04-15T17:04:08.604Z,15.90
2018-04-15T17:06:37.019Z,15.23
2018-04-15T17:09:05.449Z,14.00
2018-04-15T17:11:33.921Z,15.83
2018-04-15T17:14:03.074Z,16.27
2018-04-15T17:16:31.454Z,17.43
2018-04-15T17:18:59.803Z,18.10
2018-04-15T17:21:28.240Z,17.53
2018-04-15T17:23:57.425Z,18.60
2018-04-15T17:26:25.839Z,18.13
2018-04-15T17:28:54.223Z,18.07
2018-04-15T17:31:23.932Z,20.07
2018-04-15T17:33:52.409Z,20.53
2018-04-15T17:36:20.758Z,19.33
2018-04-15T17:38:49.974Z,19.90
2018-04-15T17:41:18.359Z,19.87
2018-04-15T17:43:46.765Z,20.73
2018-04-15T17:46:15.185Z,20.30
2018-04-15T17:48:43.571Z,20.40
2018-04-15T17:51:12.731Z,19.97
2018-04-15T17:53:41.153Z,20.60
2018-04-15T17:56:10.304Z,21.97
2018-04-15T17:58:38.726Z,21.90
2018-04-15T18:01:07.943Z,22.77
2018-04-15T18:03:36.326Z,22.20
2018-04-15T18:06:04.928Z,21.43
2018-04-15T18:08:33.465Z,24.10
2018-04-15T18:11:02.638Z,24.53
2018-04-15T18:13:31.036Z,23.80
2018-04-15T18:16:00.231Z,22.27
2018-04-15T18:18:29.354Z,22.67
2018-04-15T18:20:57.801Z,24.73
2018-04-15T18:23:26.188Z,24.67
2018-04-15T18:25:55.370Z,25.57
2018-04-15T18:28:23.711Z,25.40
2018-04-15T18:30:52.140Z,24.97
2018-04-15T18:33:21.251Z,24.57
2018-04-15T18:35:49.743Z,27.10
2018-04-15T18:38:18.129Z,26.17
2018-04-15T18:40:46.491Z,26.30
2018-04-15T18:43:14.846Z,26.80
2018-04-15T18:45:43.935Z,25.83
2018-04-15T18:48:12.684Z,25.20
2018-04-15T18:50:41.068Z,27.67
2018-04-15T18:53:09.399Z,27.37
2018-04-15T18:55:38.561Z,30.40
2018-04-15T18:58:06.980Z,27.33
2018-04-15T19:00:35.367Z,25.97
2018-04-15T19:03:03.783Z,26.80
2018-04-15T19:05:32.139Z,30.80
2018-04-15T19:08:00.491Z,31.00
2018-04-15T19:10:28.880Z,29.07
2018-04-15T19:12:57.263Z,30.67
2018-04-15T19:15:25.628Z,32.97
2018-04-15T19:17:55.071Z,28.57
2018-04-15T19:20:23.431Z,32.13
2018-04-15T19:22:51.788Z,29.23
2018-04-15T19:25:20.251Z,33.00
2018-04-15T19:27:49.425Z,33.37
2018-04-15T19:30:17.824Z,28.83
2018-04-15T19:32:48.780Z,29.50
2018-04-15T19:35:17.197Z,31.60
2018-04-15T19:37:45.614Z,31.47
2018-04-15T19:40:14.833Z,31.97
2018-04-15T19:42:43.171Z,32.13
2018-04-15T19:45:11.616Z,32.90
2018-04-15T19:47:40.056Z,34.47
2018-04-15T19:50:09.196Z,35.30
2018-04-15T19:52:37.709Z,39.13
2018-04-15T19:55:06.070Z,33.87
2018-04-15T19:57:34.446Z,37.63
2018-04-15T20:00:03.334Z,33.77
2018-04-15T20:02:31.753Z,35.97
2018-04-15T20:05:00.907Z,35.27
2018-04-15T20:07:29.347Z,37.70
2018-04-15T20:09:57.756Z,38.10
2018-04-15T20:12:26.150Z,38.77
2018-04-15T20:14:54.564Z,40.93
2018-04-15T20:17:23.655Z,43.67
2018-04-15T20:19:52.839Z,40.73
2018-04-15T20:22:21.224Z,41.60
2018-04-15T20:24:49.655Z,42.40
2018-04-15T20:27:18.088Z,43.20
2018-04-15T20:29:47.247Z,39.33
2018-04-15T20:32:15.624Z,40.80
2018-04-15T20:34:43.952Z,37.87
2018-04-15T20:37:13.091Z,37.93
2018-04-15T20:39:41.518Z,40.27
2018-04-15T20:42:10.681Z,47.83
2018-04-15T20:44:39.035Z,49.90
2018-04-15T20:47:07.423Z,45.67
2018-04-15T20:49:36.197Z,42.07
2018-04-15T20:52:04.569Z,46.90
2018-04-15T20:54:32.903Z,44.20
2018-04-15T20:57:02.024Z,42.43
2018-04-15T20:59:30.416Z,46.07
2018-04-15T21:01:58.748Z,41.00
2018-04-15T21:04:27.468Z,37.63
2018-04-15T21:06:55.811Z,38.10
2018-04-15T21:09:24.137Z,37.27
2018-04-15T21:11:52.565Z,42.07
2018-04-15T21:14:20.928Z,41.63
2018-04-15T21:16:49.341Z,41.33
2018-04-15T21:19:18.468Z,44.93
2018-04-15T21:21:46.854Z,44.73
2018-04-15T21:24:15.235Z,42.70
2018-04-15T21:26:43.639Z,47.23
2018-04-15T21:29:12.029Z,40.67
2018-04-15T21:31:40.449Z,42.10
2018-04-15T21:34:08.827Z,38.13
2018-04-15T21:36:37.188Z,47.37
2018-04-15T21:39:06.685Z,52.63
2018-04-15T21:41:35.858Z,47.07
2018-04-15T21:44:04.286Z,49.77
2018-04-15T21:46:32.645Z,50.40
2018-04-15T21:49:01.078Z,47.60
2018-04-15T21:51:29.849Z,28.23
2018-04-15T21:53:58.241Z,30.00
2018-04-15T21:56:26.650Z,29.10
2018-04-15T21:58:55.819Z,32.13
2018-04-15T22:01:24.167Z,36.60
2018-04-15T22:03:52.688Z,35.93
2018-04-15T22:06:21.100Z,39.07
2018-04-15T22:08:49.490Z,37.57
2018-04-15T22:11:17.962Z,43.03
2018-04-15T22:13:46.343Z,43.47
2018-04-15T22:16:14.667Z,38.47
2018-04-15T22:18:43.076Z,41.27
2018-04-15T22:21:12.193Z,46.07
2018-04-15T22:23:40.557Z,47.87
2018-04-15T22:26:09.739Z,44.10
2018-04-15T22:28:38.123Z,45.37
2018-04-15T22:31:07.724Z,48.70
2018-04-15T22:33:36.051Z,47.80
2018-04-15T22:36:04.382Z,45.57
2018-04-15T22:38:32.816Z,43.77
2018-04-15T22:41:01.196Z,43.23
2018-04-15T22:43:29.555Z,40.67
2018-04-15T22:45:57.963Z,49.13
2018-04-15T22:48:32.744Z,48.13
2018-04-15T22:51:01.075Z,42.13
2018-04-15T22:53:29.490Z,42.13
2018-04-15T22:55:59.081Z,44.50
2018-04-15T23:01:21.091Z,45.83
2018-04-15T23:03:49.484Z,43.13
2018-04-15T23:06:17.887Z,44.77
2018-04-15T23:08:46.215Z,47.63
2018-04-15T23:11:14.629Z,48.33
2018-04-15T23:13:42.997Z,53.93
2018-04-15T23:16:11.419Z,45.70
2018-04-15T23:18:40.568Z,42.90
2018-04-15T23:21:08.925Z,46.27
2018-04-15T23:23:37.337Z,43.70
2018-04-15T23:26:05.674Z,45.03
2018-04-15T23:28:34.062Z,45.83
2018-04-15T23:31:03.175Z,47.73
2018-04-15T23:33:31.601Z,45.07
2018-04-15T23:36:00.690Z,42.70
2018-04-15T23:38:29.879Z,38.57
2018-04-15T23:40:59.026Z,34.30
2018-04-15T23:43:27.432Z,36.83
2018-04-15T23:45:55.756Z,35.43
2018-04-15T23:48:24.121Z,41.30
2018-04-15T23:50:53.231Z,41.73
2018-04-15T23:53:21.594Z,38.83
2018-04-15T23:55:50.768Z,43.83
2018-04-15T23:58:19.176Z,39.27
